createdAt,value
2018-03-18T00:00:06.109Z,-1.60
2018-03-18T00:02:38.817Z,-1.50
2018-03-18T00:05:07.096Z,-1.60
2018-03-18T00:07:35.387Z,-1.50
2018-03-18T00:10:03.681Z,-1.50
2018-03-18T00:12:32.027Z,-1.50
2018-03-18T00:15:00.316Z,-1.60
2018-03-18T00:17:28.634Z,-1.60
2018-03-18T00:19:56.923Z,-1.60
2018-03-18T00:22:25.192Z,-1.70
2018-03-18T00:24:53.508Z,-1.70
2018-03-18T00:27:21.797Z,-1.70
2018-03-18T00:29:50.062Z,-1.80
2018-03-18T00:32:18.388Z,-1.80
2018-03-18T00:34:46.647Z,-1.80
2018-03-18T00:37:14.960Z,-1.80
2018-03-18T00:39:43.245Z,-1.80
2018-03-18T00:42:11.525Z,-1.80
2018-03-18T00:44:40.541Z,-1.80
2018-03-18T00:47:09.941Z,-1.80
2018-03-18T00:49:38.964Z,-1.80
2018-03-18T00:52:07.248Z,-1.80
2018-03-18T00:54:35.545Z,-1.90
2018-03-18T00:57:03.855Z,-1.80
2018-03-18T00:59:32.119Z,-1.80
2018-03-18T01:02:00.391Z,-1.80
2018-03-18T01:04:28.712Z,-1.80
2018-03-18T01:06:56.990Z,-1.80
2018-03-18T01:09:25.270Z,-1.80
2018-03-18T01:11:53.604Z,-1.80
2018-03-18T01:14:21.876Z,-1.90
2018-03-18T01:16:50.198Z,-1.90
2018-03-18T01:19:19.239Z,-2.00
2018-03-18T01:21:47.580Z,-2.00
2018-03-18T01:24:15.893Z,-2.00
2018-03-18T01:26:44.191Z,-2.00
2018-03-18T01:29:12.459Z,-2.00
2018-03-18T01:31:40.766Z,-2.00
2018-03-18T01:34:09.928Z,-2.00
2018-03-18T01:36:38.244Z,-2.00
2018-03-18T01:39:06.510Z,-2.00
2018-03-18T01:41:34.782Z,-2.00
2018-03-18T01:44:03.088Z,-2.00
2018-03-18T01:46:32.125Z,-2.00
2018-03-18T01:49:00.440Z,-2.10
2018-03-18T01:51:28.717Z,-2.10
2018-03-18T01:53:56.976Z,-2.10
2018-03-18T01:56:25.345Z,-2.10
2018-03-18T01:58:53.606Z,-2.10
2018-03-18T02:01:21.932Z,-2.10
2018-03-18T02:03:50.212Z,-2.20
2018-03-18T02:06:18.482Z,-2.20
2018-03-18T02:08:46.826Z,-2.20
2018-03-18T02:11:15.097Z,-2.20
2018-03-18T02:13:44.042Z,-2.20
2018-03-18T02:16:12.334Z,-2.20
2018-03-18T02:18:40.621Z,-2.30
2018-03-18T02:21:09.682Z,-2.40
2018-03-18T02:23:38.006Z,-2.40
2018-03-18T02:26:06.287Z,-2.40
2018-03-18T02:28:34.569Z,-2.40
2018-03-18T02:31:02.934Z,-2.40
2018-03-18T02:33:31.225Z,-2.40
2018-03-18T02:35:59.489Z,-2.50
2018-03-18T02:38:28.559Z,-2.60
2018-03-18T02:40:56.838Z,-2.60
2018-03-18T02:43:25.172Z,-2.60
2018-03-18T02:45:53.445Z,-2.60
2018-03-18T02:48:21.727Z,-2.60
2018-03-18T02:50:50.050Z,-2.60
2018-03-18T02:53:18.326Z,-2.60
2018-03-18T02:55:46.599Z,-2.60
2018-03-18T02:58:14.934Z,-2.60
2018-03-18T03:00:43.202Z,-2.70
2018-03-18T03:03:11.478Z,-2.70
2018-03-18T03:05:39.798Z,-2.70
2018-03-18T03:08:08.106Z,-2.70
2018-03-18T03:10:36.361Z,-2.70
2018-03-18T03:13:04.673Z,-2.70
2018-03-18T03:15:32.941Z,-2.70
2018-03-18T03:18:02.155Z,-2.80
2018-03-18T03:20:30.426Z,-2.80
2018-03-18T03:22:58.693Z,-2.80
2018-03-18T03:25:27.770Z,-2.80
2018-03-18T03:27:56.054Z,-2.90
2018-03-18T03:30:24.387Z,-2.90
2018-03-18T03:32:52.643Z,-2.90
2018-03-18T03:35:20.927Z,-2.90
2018-03-18T03:37:49.220Z,-2.90
2018-03-18T03:40:17.492Z,-3.00
2018-03-18T03:42:45.850Z,-3.00
2018-03-18T03:45:14.884Z,-3.10
2018-03-18T03:47:43.183Z,-3.10
2018-03-18T03:50:11.480Z,-3.10
2018-03-18T03:52:41.005Z,-3.20
2018-03-18T03:55:09.318Z,-3.20
2018-03-18T03:57:37.586Z,-3.20
2018-03-18T04:00:05.909Z,-3.20
2018-03-18T04:02:34.171Z,-3.20
2018-03-18T04:05:02.448Z,-3.20
2018-03-18T04:07:30.757Z,-3.20
2018-03-18T04:09:59.030Z,-3.20
2018-03-18T04:12:27.327Z,-3.20
2018-03-18T04:14:56.419Z,-3.30
2018-03-18T04:17:25.468Z,-3.30
2018-03-18T04:19:53.768Z,-3.30
2018-03-18T04:22:22.045Z,-3.30
2018-03-18T04:24:50.307Z,-3.40
2018-03-18T04:27:18.658Z,-3.40
2018-03-18T04:29:46.925Z,-3.40
2018-03-18T04:32:15.919Z,-3.50
2018-03-18T04:34:44.222Z,-3.50
2018-03-18T04:37:12.497Z,-3.50
2018-03-18T04:39:40.821Z,-3.60
2018-03-18T04:42:09.141Z,-3.60
2018-03-18T04:44:37.417Z,-3.70
2018-03-18T04:47:05.704Z,-3.70
2018-03-18T04:49:33.975Z,-3.70
2018-03-18T04:52:02.337Z,-3.50
2018-03-18T04:54:30.566Z,-3.80
2018-03-18T04:56:58.845Z,-3.80
2018-03-18T04:59:27.139Z,-3.80
2018-03-18T05:01:55.425Z,-3.90
2018-03-18T05:04:23.721Z,-4.00
2018-03-18T05:06:51.988Z,-4.00
2018-03-18T05:09:21.016Z,-4.10
2018-03-18T05:11:49.326Z,-4.10
2018-03-18T05:14:17.597Z,-4.10
2018-03-18T05:16:45.918Z,-4.10
2018-03-18T05:19:14.240Z,-4.20
2018-03-18T05:21:42.495Z,-4.20
2018-03-18T05:24:10.800Z,-4.30
2018-03-18T05:26:39.067Z,-4.30
2018-03-18T05:29:07.445Z,-4.30
2018-03-18T05:31:35.668Z,-4.30
2018-03-18T05:34:03.936Z,-4.30
2018-03-18T05:36:32.244Z,-4.30
2018-03-18T05:39:01.290Z,-4.30
2018-03-18T05:41:29.622Z,-4.30
2018-03-18T05:43:57.870Z,-4.20
2018-03-18T05:46:26.134Z,-4.20
2018-03-18T05:48:54.438Z,-4.20
2018-03-18T05:51:23.485Z,-4.20
2018-03-18T05:53:51.824Z,-4.20
2018-03-18T05:56:20.133Z,-4.20
2018-03-18T05:58:48.364Z,-4.20
2018-03-18T06:01:16.656Z,-4.20
2018-03-18T06:03:45.706Z,-4.10
2018-03-18T06:06:14.021Z,-4.10
2018-03-18T06:08:42.281Z,-4.10
2018-03-18T06:11:10.549Z,-4.10
2018-03-18T06:13:38.898Z,-4.10
2018-03-18T06:16:07.152Z,-4.10
2018-03-18T06:18:35.475Z,-4.10
2018-03-18T06:21:03.742Z,-4.00
2018-03-18T06:23:32.017Z,-4.00
2018-03-18T06:26:00.318Z,-4.00
2018-03-18T06:28:28.583Z,-4.00
2018-03-18T06:30:56.903Z,-4.00
2018-03-18T06:33:25.957Z,-3.90
2018-03-18T06:35:54.231Z,-3.90
2018-03-18T06:38:22.539Z,-3.90
2018-03-18T06:40:50.812Z,-3.80
2018-03-18T06:43:19.135Z,-3.80
2018-03-18T06:45:47.456Z,-3.70
2018-03-18T06:48:15.742Z,-3.70
2018-03-18T06:50:44.046Z,-3.70
2018-03-18T06:53:12.307Z,-3.60
2018-03-18T06:55:40.628Z,-3.60
2018-03-18T06:58:08.890Z,-3.50
2018-03-18T07:00:37.932Z,-3.40
2018-03-18T07:03:06.231Z,-3.50
2018-03-18T07:05:34.495Z,-3.40
2018-03-18T07:08:02.846Z,-3.40
2018-03-18T07:10:31.100Z,-3.30
2018-03-18T07:13:02.393Z,-3.30
2018-03-18T07:15:30.709Z,-3.30
2018-03-18T07:17:59.100Z,-3.20
2018-03-18T07:20:28.133Z,-3.10
2018-03-18T07:22:56.441Z,-3.10
2018-03-18T07:25:24.708Z,-3.00
2018-03-18T07:27:53.061Z,-3.00
2018-03-18T07:30:21.337Z,-2.90
2018-03-18T07:32:49.601Z,-2.80
2018-03-18T07:35:17.933Z,-2.80
2018-03-18T07:37:46.193Z,-2.70
2018-03-18T07:40:14.466Z,-2.70
2018-03-18T07:42:42.776Z,-2.70
2018-03-18T07:45:11.082Z,-2.60
2018-03-18T07:47:39.395Z,-2.50
2018-03-18T07:50:08.447Z,-2.30
2018-03-18T07:52:36.830Z,-2.30
2018-03-18T07:55:05.907Z,-2.20
2018-03-18T07:57:34.177Z,-2.30
2018-03-18T08:00:02.487Z,-2.20
2018-03-18T08:02:31.546Z,-2.30
2018-03-18T08:04:59.842Z,-2.40
2018-03-18T08:07:28.177Z,-2.40
2018-03-18T08:09:56.479Z,-2.30
2018-03-18T08:12:24.830Z,-2.30
2018-03-18T08:14:53.132Z,-2.20
2018-03-18T08:17:21.397Z,-2.20
2018-03-18T08:19:49.703Z,-2.10
2018-03-18T08:22:20.787Z,-2.10
2018-03-18T08:24:49.099Z,-2.10
2018-03-18T08:27:17.388Z,-2.00
2018-03-18T08:29:45.651Z,-2.00
2018-03-18T08:32:13.944Z,-1.90
2018-03-18T08:34:42.239Z,-1.70
2018-03-18T08:37:10.558Z,-1.60
2018-03-18T08:39:38.842Z,-1.60
2018-03-18T08:42:07.904Z,-1.60
2018-03-18T08:44:41.761Z,-1.60
2018-03-18T08:47:11.588Z,-1.60
2018-03-18T08:49:39.837Z,-1.60
2018-03-18T08:52:08.119Z,-1.60
2018-03-18T08:54:36.437Z,-1.50
2018-03-18T08:57:07.821Z,-1.40
2018-03-18T08:59:36.298Z,-1.40
2018-03-18T09:02:06.159Z,-1.40
2018-03-18T09:04:34.714Z,-1.40
2018-03-18T09:07:03.056Z,-1.30
2018-03-18T09:09:31.324Z,-1.20
2018-03-18T09:12:00.779Z,-1.10
2018-03-18T09:14:29.857Z,-0.90
2018-03-18T09:17:01.724Z,-0.90
2018-03-18T09:19:30.698Z,-0.80
2018-03-18T09:21:59.288Z,-0.70
2018-03-18T09:24:27.616Z,-0.50
2018-03-18T09:26:59.740Z,-0.40
2018-03-18T09:29:29.291Z,-0.40
2018-03-18T09:32:00.040Z,-0.40
2018-03-18T09:34:28.433Z,-0.50
2018-03-18T09:36:56.778Z,-0.60
2018-03-18T09:39:25.161Z,-0.60
2018-03-18T09:41:53.545Z,-0.60
2018-03-18T09:44:21.949Z,-0.60
2018-03-18T09:46:50.707Z,-0.60
2018-03-18T09:49:19.860Z,-0.50
2018-03-18T09:51:48.197Z,-0.30
2018-03-18T09:54:16.619Z,-0.20
2018-03-18T09:56:44.951Z,-0.20
2018-03-18T09:59:13.322Z,-0.10
2018-03-18T10:01:41.771Z,0.00
2018-03-18T10:04:10.188Z,-0.10
2018-03-18T10:06:39.476Z,-0.10
2018-03-18T10:09:08.608Z,-0.10
2018-03-18T10:11:36.982Z,0.00
2018-03-18T10:14:05.344Z,-0.10
2018-03-18T10:16:34.522Z,-0.10
2018-03-18T10:19:03.762Z,-0.10
2018-03-18T10:21:32.263Z,-0.10
2018-03-18T10:24:00.799Z,0.10
2018-03-18T10:26:29.986Z,0.20
2018-03-18T10:28:58.372Z,0.20
2018-03-18T10:31:27.497Z,0.20
2018-03-18T10:33:55.889Z,0.20
2018-03-18T10:36:24.237Z,0.30
2018-03-18T10:38:52.606Z,0.40
2018-03-18T10:41:21.808Z,0.60
2018-03-18T10:43:50.979Z,0.70
2018-03-18T10:46:19.402Z,0.70
2018-03-18T10:48:51.003Z,0.80
2018-03-18T10:51:19.428Z,0.90
2018-03-18T10:53:48.555Z,1.20
2018-03-18T10:56:16.951Z,1.20
2018-03-18T10:58:45.376Z,1.40
2018-03-18T11:01:20.001Z,1.60
2018-03-18T11:03:54.346Z,1.60
2018-03-18T11:06:23.011Z,1.70
2018-03-18T11:08:52.136Z,1.70
2018-03-18T11:11:20.568Z,1.70
2018-03-18T11:13:48.926Z,1.70
2018-03-18T11:16:17.402Z,1.70
2018-03-18T11:18:46.530Z,1.70
2018-03-18T11:21:16.126Z,1.70
2018-03-18T11:23:44.955Z,1.70
2018-03-18T11:26:13.307Z,1.80
2018-03-18T11:28:42.473Z,1.80
2018-03-18T11:31:10.924Z,1.90
2018-03-18T11:33:40.018Z,2.00
2018-03-18T11:36:09.171Z,2.00
2018-03-18T11:38:37.577Z,1.90
2018-03-18T11:41:05.963Z,2.00
2018-03-18T11:43:35.250Z,2.80
2018-03-18T11:46:03.554Z,2.80
2018-03-18T11:48:31.985Z,3.40
2018-03-18T11:51:00.372Z,3.90
2018-03-18T11:53:28.703Z,4.70
2018-03-18T11:55:57.162Z,5.50
2018-03-18T11:58:25.418Z,6.10
2018-03-18T12:00:53.804Z,6.30
2018-03-18T12:03:22.197Z,6.80
2018-03-18T12:05:50.600Z,7.10
2018-03-18T12:08:31.564Z,8.10
2018-03-18T12:11:00.683Z,8.70
2018-03-18T12:13:30.563Z,8.70
2018-03-18T12:16:00.870Z,9.20
2018-03-18T12:18:30.250Z,9.60
2018-03-18T12:20:58.683Z,10.10
2018-03-18T12:23:27.175Z,10.60
2018-03-18T12:25:55.608Z,10.90
2018-03-18T12:28:24.124Z,10.90
2018-03-18T12:30:52.498Z,11.10
2018-03-18T12:33:20.907Z,11.60
2018-03-18T12:35:50.205Z,12.30
2018-03-18T12:38:18.644Z,12.20
2018-03-18T12:40:50.897Z,12.50
2018-03-18T12:43:30.290Z,12.80
2018-03-18T12:45:59.490Z,13.00
2018-03-18T12:48:27.853Z,13.00
2018-03-18T12:50:56.260Z,12.30
2018-03-18T12:53:24.824Z,12.00
2018-03-18T12:55:53.349Z,12.10
2018-03-18T12:58:21.987Z,11.70
2018-03-18T13:00:50.588Z,11.10
2018-03-18T13:03:19.700Z,10.90
2018-03-18T13:05:54.788Z,10.90
2018-03-18T13:08:23.212Z,11.10
2018-03-18T13:10:52.586Z,11.70
2018-03-18T13:13:21.028Z,11.60
2018-03-18T13:15:49.460Z,11.60
2018-03-18T13:18:17.862Z,11.30
2018-03-18T13:20:47.078Z,10.90
2018-03-18T13:23:16.151Z,10.90
2018-03-18T13:25:44.807Z,10.90
2018-03-18T13:28:16.410Z,10.50
2018-03-18T13:30:44.973Z,10.20
2018-03-18T13:33:13.439Z,9.80
2018-03-18T13:35:41.807Z,9.50
2018-03-18T13:38:13.322Z,9.20
2018-03-18T13:40:41.761Z,8.90
2018-03-18T13:43:10.929Z,8.10
2018-03-18T13:45:39.309Z,8.10
2018-03-18T13:50:40.906Z,7.30
2018-03-18T13:53:10.017Z,7.20
2018-03-18T13:55:39.466Z,7.10
2018-03-18T13:58:07.915Z,7.10
2018-03-18T14:00:36.566Z,7.00
2018-03-18T14:03:04.990Z,6.70
2018-03-18T14:05:33.331Z,6.60
2018-03-18T14:08:01.694Z,6.50
2018-03-18T14:10:30.050Z,6.40
2018-03-18T14:12:58.427Z,6.50
2018-03-18T14:15:26.850Z,6.50
2018-03-18T14:17:55.241Z,6.40
2018-03-18T14:20:23.794Z,6.30
2018-03-18T14:22:53.345Z,6.00
2018-03-18T14:25:22.326Z,6.00
2018-03-18T14:27:50.765Z,5.90
2018-03-18T14:30:19.272Z,5.80
2018-03-18T14:32:47.703Z,5.70
2018-03-18T14:35:16.180Z,5.50
2018-03-18T14:37:44.572Z,5.30
2018-03-18T14:40:16.894Z,5.00
2018-03-18T14:42:46.125Z,4.40
2018-03-18T14:45:15.303Z,4.10
2018-03-18T14:47:43.720Z,4.10
2018-03-18T14:50:12.084Z,4.00
2018-03-18T14:52:42.509Z,3.90
2018-03-18T14:55:11.680Z,3.90
2018-03-18T14:57:40.053Z,3.90
2018-03-18T15:00:08.460Z,3.90
2018-03-18T15:02:36.800Z,3.70
2018-03-18T15:05:05.192Z,3.60
2018-03-18T15:07:33.633Z,3.50
2018-03-18T15:10:02.092Z,3.40
2018-03-18T15:12:30.614Z,3.20
2018-03-18T15:14:59.141Z,3.20
2018-03-18T15:17:27.552Z,3.10
2018-03-18T15:19:56.072Z,3.00
2018-03-18T15:22:24.523Z,2.80
2018-03-18T15:24:53.647Z,2.70
2018-03-18T15:27:22.213Z,2.70
2018-03-18T15:29:56.267Z,2.60
2018-03-18T15:32:24.691Z,2.60
2018-03-18T15:34:53.824Z,2.50
2018-03-18T15:37:22.156Z,2.40
2018-03-18T15:39:50.510Z,2.40
2018-03-18T15:42:18.823Z,2.40
2018-03-18T15:44:50.692Z,2.30
2018-03-18T15:47:19.025Z,2.30
2018-03-18T15:49:47.513Z,2.30
2018-03-18T15:52:16.112Z,2.20
2018-03-18T15:54:44.559Z,2.20
2018-03-18T15:57:12.975Z,2.10
2018-03-18T15:59:47.439Z,1.90
2018-03-18T16:02:16.637Z,1.80
2018-03-18T16:04:44.972Z,1.80
2018-03-18T16:07:13.578Z,1.70
2018-03-18T16:09:42.760Z,1.50
2018-03-18T16:12:11.341Z,1.50
2018-03-18T16:14:40.690Z,1.50
2018-03-18T16:17:09.091Z,1.50
2018-03-18T16:19:39.366Z,1.50
2018-03-18T16:22:09.338Z,1.40
2018-03-18T16:24:37.875Z,1.30
2018-03-18T16:27:06.303Z,1.20
2018-03-18T16:29:46.807Z,1.20
2018-03-18T16:32:16.067Z,1.10
2018-03-18T16:34:45.489Z,1.00
2018-03-18T16:37:14.906Z,0.90
2018-03-18T16:39:43.253Z,0.80
2018-03-18T16:42:11.664Z,0.80
2018-03-18T16:44:40.303Z,0.80
2018-03-18T16:47:08.746Z,0.70
2018-03-18T16:49:37.195Z,0.60
2018-03-18T16:52:05.577Z,0.60
2018-03-18T16:54:36.026Z,0.50
2018-03-18T16:57:11.233Z,0.50
2018-03-18T16:59:39.636Z,0.50
2018-03-18T17:02:08.016Z,0.40
2018-03-18T17:04:36.444Z,0.30
2018-03-18T17:07:05.935Z,0.20
2018-03-18T17:09:34.324Z,0.20
2018-03-18T17:12:02.810Z,0.10
2018-03-18T17:14:31.165Z,0.10
2018-03-18T17:17:00.665Z,0.00
2018-03-18T17:19:29.730Z,-0.10
2018-03-18T17:21:59.314Z,-0.10
2018-03-18T17:24:27.887Z,-0.10
2018-03-18T17:26:56.357Z,-0.20
2018-03-18T17:29:24.712Z,-0.20
2018-03-18T17:31:53.880Z,-0.30
2018-03-18T17:34:22.279Z,-0.30
2018-03-18T17:36:50.629Z,-0.30
2018-03-18T17:39:19.077Z,-0.30
2018-03-18T17:41:47.516Z,-0.40
2018-03-18T17:44:27.691Z,-0.40
2018-03-18T17:47:07.776Z,-0.50
2018-03-18T17:49:48.208Z,-0.50
2018-03-18T17:52:29.243Z,-0.60
2018-03-18T17:55:09.394Z,-0.60
2018-03-18T17:57:38.512Z,-0.70
2018-03-18T18:00:07.796Z,-0.70
2018-03-18T18:02:40.213Z,-0.70
2018-03-18T18:05:08.625Z,-0.70
2018-03-18T18:07:38.218Z,-0.70
2018-03-18T18:10:12.524Z,-0.80
2018-03-18T18:12:52.104Z,-0.80
2018-03-18T18:15:26.027Z,-0.80
2018-03-18T18:17:54.621Z,-0.80
2018-03-18T18:20:23.034Z,-0.80
2018-03-18T18:22:56.105Z,-0.90
2018-03-18T18:25:24.567Z,-0.90
2018-03-18T18:27:52.982Z,-0.90
2018-03-18T18:30:21.494Z,-0.90
2018-03-18T18:32:50.628Z,-0.90
2018-03-18T18:35:19.024Z,-0.90
2018-03-18T18:37:47.560Z,-0.90
2018-03-18T18:40:16.719Z,-1.00
2018-03-18T18:42:45.439Z,-1.00
2018-03-18T18:45:14.652Z,-1.00
2018-03-18T18:47:43.242Z,-1.00
2018-03-18T18:50:11.711Z,-1.10
2018-03-18T18:52:40.928Z,-1.10
2018-03-18T18:55:09.404Z,-1.10
2018-03-18T18:57:37.855Z,-1.10
2018-03-18T19:00:06.262Z,-1.10
2018-03-18T19:02:34.709Z,-1.10
2018-03-18T19:05:04.990Z,-1.10
2018-03-18T19:07:33.728Z,-1.20
2018-03-18T19:10:02.151Z,-1.10
2018-03-18T19:12:30.527Z,-1.20
2018-03-18T19:15:02.316Z,-1.20
2018-03-18T19:17:30.837Z,-1.20
2018-03-18T19:19:59.264Z,-1.20
2018-03-18T19:22:27.853Z,-1.30
2018-03-18T19:24:56.248Z,-1.30
2018-03-18T19:27:24.661Z,-1.30
2018-03-18T19:29:53.088Z,-1.30
2018-03-18T19:32:22.003Z,-1.30
2018-03-18T19:34:50.616Z,-1.30
2018-03-18T19:37:19.631Z,-1.30
2018-03-18T19:39:48.546Z,-1.40
2018-03-18T19:42:17.026Z,-1.30
2018-03-18T19:44:49.932Z,-1.30
2018-03-18T19:47:18.554Z,-1.30
2018-03-18T19:49:54.180Z,-1.30
2018-03-18T19:52:22.567Z,-1.30
2018-03-18T19:54:51.785Z,-1.40
2018-03-18T19:57:22.014Z,-1.40
2018-03-18T19:59:54.206Z,-1.40
2018-03-18T20:02:22.561Z,-1.40
2018-03-18T20:04:51.699Z,-1.40
2018-03-18T20:07:23.329Z,-1.40
2018-03-18T20:09:51.943Z,-1.40
2018-03-18T20:12:20.542Z,-1.40
2018-03-18T20:14:48.777Z,-1.40
2018-03-18T20:17:17.849Z,-1.50
2018-03-18T20:19:46.296Z,-1.50
2018-03-18T20:22:14.748Z,-1.50
2018-03-18T20:24:43.146Z,-1.70
2018-03-18T20:27:11.569Z,-1.60
2018-03-18T20:29:39.914Z,-1.60
2018-03-18T20:32:08.327Z,-1.60
2018-03-18T20:34:39.051Z,-1.60
2018-03-18T20:37:08.224Z,-1.70
2018-03-18T20:39:36.598Z,-1.70
2018-03-18T20:42:04.998Z,-1.70
2018-03-18T20:44:34.261Z,-1.80
2018-03-18T20:47:02.632Z,-1.80
2018-03-18T20:49:31.007Z,-1.70
2018-03-18T20:51:59.339Z,-1.80
2018-03-18T20:54:27.640Z,-1.80
2018-03-18T20:56:56.547Z,-1.80
2018-03-18T20:59:25.762Z,-1.90
2018-03-18T21:01:54.884Z,-1.90
2018-03-18T21:04:23.195Z,-1.90
2018-03-18T21:06:51.604Z,-1.90
2018-03-18T21:09:21.613Z,-2.00
2018-03-18T21:11:49.978Z,-2.00
2018-03-18T21:14:18.396Z,-2.00
2018-03-18T21:16:46.700Z,-2.00
2018-03-18T21:19:14.967Z,-2.00
2018-03-18T21:21:43.484Z,-2.00
2018-03-18T21:24:12.051Z,-2.10
2018-03-18T21:26:40.535Z,-2.10
2018-03-18T21:29:09.251Z,-2.10
2018-03-18T21:31:37.567Z,-2.10
2018-03-18T21:34:05.949Z,-2.10
2018-03-18T21:36:34.228Z,-2.20
2018-03-18T21:39:02.594Z,-2.20
2018-03-18T21:41:31.437Z,-2.20
2018-03-18T21:43:59.754Z,-2.20
2018-03-18T21:46:28.102Z,-2.20
2018-03-18T21:48:57.010Z,-2.30
2018-03-18T21:51:25.290Z,-2.30
2018-03-18T21:53:53.671Z,-2.30
2018-03-18T21:56:21.974Z,-2.30
2018-03-18T21:58:51.223Z,-2.40
2018-03-18T22:01:19.502Z,-2.40
2018-03-18T22:03:47.787Z,-2.40
2018-03-18T22:06:16.099Z,-2.40
2018-03-18T22:08:44.420Z,-2.40
2018-03-18T22:11:12.747Z,-2.40
2018-03-18T22:13:41.038Z,-2.40
2018-03-18T22:16:09.321Z,-2.40
2018-03-18T22:18:37.627Z,-2.50
2018-03-18T22:21:05.981Z,-2.50
2018-03-18T22:23:34.379Z,-2.50
2018-03-18T22:26:02.660Z,-2.50
2018-03-18T22:28:31.714Z,-2.50
2018-03-18T22:31:00.046Z,-2.50
2018-03-18T22:33:28.326Z,-2.50
2018-03-18T22:35:56.668Z,-2.60
2018-03-18T22:38:24.940Z,-2.60
2018-03-18T22:40:54.112Z,-2.60
2018-03-18T22:43:22.430Z,-2.60
2018-03-18T22:45:50.722Z,-2.60
2018-03-18T22:48:19.845Z,-2.60
2018-03-18T22:50:48.127Z,-2.60
2018-03-18T22:53:16.424Z,-2.60
2018-03-18T22:55:44.739Z,-2.70
2018-03-18T22:58:13.022Z,-2.70
2018-03-18T23:00:44.675Z,-2.70
2018-03-18T23:03:13.143Z,-2.70
2018-03-18T23:05:41.430Z,-2.70
2018-03-18T23:08:09.741Z,-2.80
2018-03-18T23:10:38.037Z,-2.80
2018-03-18T23:13:06.320Z,-2.70
2018-03-18T23:15:34.649Z,-2.80
2018-03-18T23:18:02.927Z,-2.80
2018-03-18T23:20:31.190Z,-2.80
2018-03-18T23:22:59.551Z,-2.80
2018-03-18T23:25:27.845Z,-2.80
2018-03-18T23:27:56.088Z,-2.80
2018-03-18T23:30:24.423Z,-2.80
2018-03-18T23:32:52.694Z,-2.80
2018-03-18T23:35:21.007Z,-2.80
2018-03-18T23:37:49.305Z,-2.80
2018-03-18T23:40:17.582Z,-2.80
2018-03-18T23:42:45.904Z,-2.80
2018-03-18T23:45:14.306Z,-2.80
2018-03-18T23:47:42.627Z,-2.80
2018-03-18T23:50:10.953Z,-2.80
2018-03-18T23:52:39.243Z,-2.80
2018-03-18T23:55:08.302Z,-2.80
2018-03-18T23:57:36.582Z,-2.90
